Time,TemperatureF,DewpointF,PressureIn,WindDirection,WindDirectionDegrees,WindSpeedMPH,WindSpeedGustMPH,Humidity,HourlyPrecipIn,Conditions,Clouds,dailyrainin,SoftwareType,DateUTC
2013-09-06 00:05:00,55.4,45.4,30.10,NNE,32,0.0,0.0,69,0.00,,,0.00,Wunderground v.1.15,2013-09-06 04:05:00,
2013-09-06 00:10:00,55.1,45.5,30.10,NNE,32,0.0,0.0,70,0.00,,,0.00,Wunderground v.1.15,2013-09-06 04:10:00,
2013-09-06 00:14:00,54.8,45.9,30.10,NNE,32,0.0,0.0,72,0.00,,,0.00,Wunderground v.1.15,2013-09-06 04:14:00,
2013-09-06 00:20:00,54.5,45.7,30.10,NNE,32,0.0,0.0,72,0.00,,,0.00,Wunderground v.1.15,2013-09-06 04:20:00,
2013-09-06 00:25:00,54.2,45.7,30.10,NNE,32,0.0,0.0,73,0.00,,,0.00,Wunderground v.1.15,2013-09-06 04:25:00,
2013-09-06 00:30:00,53.8,45.7,30.10,NNE,32,0.0,0.0,74,0.00,,,0.00,Wunderground v.1.15,2013-09-06 04:30:00,
2013-09-06 00:40:00,53.3,45.6,30.10,NNE,32,0.0,0.0,75,0.00,,,0.00,Wunderground v.1.15,2013-09-06 04:40:00,
2013-09-06 00:45:00,53.2,45.8,30.10,NNE,32,0.0,0.0,76,0.00,,,0.00,Wunderground v.1.15,2013-09-06 04:45:00,
2013-09-06 00:55:00,52.9,45.2,30.11,NNE,32,0.0,0.0,75,0.00,,,0.00,Wunderground v.1.15,2013-09-06 04:55:00,
2013-09-06 01:05:00,52.9,45.2,30.11,NNE,32,0.0,0.0,75,0.00,,,0.00,Wunderground v.1.15,2013-09-06 05:05:00,
2013-09-06 01:10:00,53.1,45.4,30.11,NNE,32,0.0,0.0,75,0.00,,,0.00,Wunderground v.1.15,2013-09-06 05:10:00,
2013-09-06 01:15:00,53.2,45.1,30.11,NNE,30,0.0,0.0,74,0.00,,,0.00,Wunderground v.1.15,2013-09-06 05:15:00,
2013-09-06 01:20:00,53.5,45.1,30.11,NNE,30,0.0,0.0,73,0.00,,,0.00,Wunderground v.1.15,2013-09-06 05:20:00,
2013-09-06 01:30:00,53.8,45.0,30.11,NNE,30,0.0,0.0,72,0.00,,,0.00,Wunderground v.1.15,2013-09-06 05:30:00,
2013-09-06 01:40:00,53.9,44.3,30.11,NNE,30,0.0,0.0,70,0.00,,,0.00,Wunderground v.1.15,2013-09-06 05:40:00,
2013-09-06 01:45:00,54.2,44.2,30.11,NNE,22,0.0,0.0,69,0.00,,,0.00,Wunderground v.1.15,2013-09-06 05:45:00,
2013-09-06 01:50:00,54.4,44.4,30.12,NNE,22,0.0,0.0,69,0.00,,,0.00,Wunderground v.1.15,2013-09-06 05:50:00,
2013-09-06 01:55:00,54.5,44.2,30.12,NNE,22,0.0,0.0,68,0.00,,,0.00,Wunderground v.1.15,2013-09-06 05:55:00,
2013-09-06 02:00:00,54.5,44.2,30.12,NNE,22,0.0,0.0,68,0.00,,,0.00,Wunderground v.1.15,2013-09-06 06:00:00,
2013-09-06 02:10:00,54.5,44.5,30.13,NNE,22,0.0,0.0,69,0.00,,,0.00,Wunderground v.1.15,2013-09-06 06:10:00,
2013-09-06 02:19:00,54.2,44.2,30.13,NNE,22,0.0,0.0,69,0.00,,,0.00,Wunderground v.1.15,2013-09-06 06:19:00,
2013-09-06 02:25:00,54.1,44.2,30.13,NNE,22,0.0,0.0,69,0.00,,,0.00,Wunderground v.1.15,2013-09-06 06:25:00,
2013-09-06 02:30:00,53.9,44.3,30.13,NNE,22,0.0,0.0,70,0.00,,,0.00,Wunderground v.1.15,2013-09-06 06:30:00,
2013-09-06 02:39:00,53.5,44.0,30.13,NNE,22,0.0,0.0,70,0.00,,,0.00,Wunderground v.1.15,2013-09-06 06:39:00,
2013-09-06 02:45:00,53.2,44.0,30.13,NNE,22,0.0,0.0,71,0.00,,,0.00,Wunderground v.1.15,2013-09-06 06:45:00,
2013-09-06 02:50:00,53.1,43.9,30.13,NNE,22,0.0,0.0,71,0.00,,,0.00,Wunderground v.1.15,2013-09-06 06:50:00,
2013-09-06 02:55:00,52.8,44.0,30.13,NNE,22,0.0,0.0,72,0.00,,,0.00,Wunderground v.1.15,2013-09-06 06:55:00,
2013-09-06 03:00:00,52.6,43.8,30.13,NNE,22,0.0,0.0,72,0.00,,,0.00,Wunderground v.1.15,2013-09-06 07:00:00,
2013-09-06 03:10:00,52.3,43.9,30.13,NNE,22,0.0,0.0,73,0.00,,,0.00,Wunderground v.1.15,2013-09-06 07:10:00,
2013-09-06 03:15:00,52.2,44.2,30.13,NNE,22,0.0,0.0,74,0.00,,,0.00,Wunderground v.1.15,2013-09-06 07:15:00,
2013-09-06 03:25:00,51.7,44.0,30.13,NNE,22,0.0,0.0,75,0.00,,,0.00,Wunderground v.1.15,2013-09-06 07:25:00,
2013-09-06 03:30:00,51.6,43.9,30.13,NNE,22,0.0,0.0,75,0.00,,,0.00,Wunderground v.1.15,2013-09-06 07:30:00,
2013-09-06 03:35:00,51.3,43.6,30.14,NNE,22,0.0,0.0,75,0.00,,,0.00,Wunderground v.1.15,2013-09-06 07:35:00,
2013-09-06 03:40:00,51.1,43.8,30.14,NNE,22,0.0,0.0,76,0.00,,,0.00,Wunderground v.1.15,2013-09-06 07:40:00,
2013-09-06 03:50:00,50.7,43.8,30.15,NNE,22,0.0,0.0,77,0.00,,,0.00,Wunderground v.1.15,2013-09-06 07:50:00,
2013-09-06 03:55:00,50.4,43.8,30.15,NNE,22,0.0,0.0,78,0.00,,,0.00,Wunderground v.1.15,2013-09-06 07:55:00,
2013-09-06 04:05:00,49.9,44.0,30.15,NNE,22,0.0,0.0,80,0.00,,,0.00,Wunderground v.1.15,2013-09-06 08:05:00,
2013-09-06 04:10:00,49.8,44.2,30.15,NNE,22,0.0,0.0,81,0.00,,,0.00,Wunderground v.1.15,2013-09-06 08:10:00,
2013-09-06 04:15:00,49.6,44.3,30.15,NNE,22,0.0,0.0,82,0.00,,,0.00,Wunderground v.1.15,2013-09-06 08:15:00,
2013-09-06 04:20:00,49.4,44.1,30.15,NNE,22,0.0,0.0,82,0.00,,,0.00,Wunderground v.1.15,2013-09-06 08:20:00,
2013-09-06 04:25:00,49.2,43.9,30.15,NNE,22,0.0,0.0,82,0.00,,,0.00,Wunderground v.1.15,2013-09-06 08:25:00,
2013-09-06 04:35:00,48.8,44.2,30.15,NNE,22,0.0,0.0,84,0.00,,,0.00,Wunderground v.1.15,2013-09-06 08:35:00,
2013-09-06 04:45:00,48.6,44.6,30.15,NNE,22,0.0,0.0,86,0.00,,,0.00,Wunderground v.1.15,2013-09-06 08:45:00,
2013-09-06 04:55:00,48.2,44.5,30.16,NNE,22,0.0,0.0,87,0.00,,,0.00,Wunderground v.1.15,2013-09-06 08:55:00,
2013-09-06 05:05:00,47.9,44.2,30.16,NNE,22,0.0,0.0,87,0.00,,,0.00,Wunderground v.1.15,2013-09-06 09:05:00,
2013-09-06 05:10:00,47.9,44.2,30.16,NNE,22,0.0,0.0,87,0.00,,,0.00,Wunderground v.1.15,2013-09-06 09:10:00,
2013-09-06 05:20:00,47.6,44.2,30.16,NNE,22,0.0,0.0,88,0.00,,,0.00,Wunderground v.1.15,2013-09-06 09:20:00,
2013-09-06 05:25:00,47.4,44.0,30.16,NNE,22,0.0,0.0,88,0.00,,,0.00,Wunderground v.1.15,2013-09-06 09:25:00,
2013-09-06 05:30:00,47.3,44.2,30.16,NNE,22,0.0,0.0,89,0.00,,,0.00,Wunderground v.1.15,2013-09-06 09:30:00,
2013-09-06 05:35:00,47.1,44.0,30.17,NNE,22,0.0,0.0,89,0.00,,,0.00,Wunderground v.1.15,2013-09-06 09:35:00,
2013-09-06 05:45:00,46.8,44.0,30.17,NNE,22,0.0,0.0,90,0.00,,,0.00,Wunderground v.1.15,2013-09-06 09:45:00,
2013-09-06 05:50:00,46.7,43.9,30.17,NNE,22,0.0,0.0,90,0.00,,,0.00,Wunderground v.1.15,2013-09-06 09:50:00,
2013-09-06 05:55:00,46.5,43.7,30.17,NNE,22,0.0,0.0,90,0.00,,,0.00,Wunderground v.1.15,2013-09-06 09:55:00,
2013-09-06 06:00:00,46.4,43.6,30.17,NNE,22,0.0,0.0,90,0.00,,,0.00,Wunderground v.1.15,2013-09-06 10:00:00,
2013-09-06 06:09:00,46.2,43.7,30.17,NNE,22,0.0,0.0,91,0.00,,,0.00,Wunderground v.1.15,2013-09-06 10:09:00,
2013-09-06 06:14:00,46.2,43.7,30.17,NNE,22,0.0,0.0,91,0.00,,,0.00,Wunderground v.1.15,2013-09-06 10:14:00,
2013-09-06 06:20:00,46.1,43.6,30.18,NNE,22,0.0,0.0,91,0.00,,,0.00,Wunderground v.1.15,2013-09-06 10:20:00,
2013-09-06 06:25:00,46.1,43.6,30.18,NNE,22,0.0,0.0,91,0.00,,,0.00,Wunderground v.1.15,2013-09-06 10:25:00,
2013-09-06 06:30:00,46.0,43.8,30.18,NNE,22,0.0,0.0,92,0.00,,,0.00,Wunderground v.1.15,2013-09-06 10:30:00,
2013-09-06 06:35:00,45.8,43.6,30.18,NNE,22,0.0,0.0,92,0.00,,,0.00,Wunderground v.1.15,2013-09-06 10:35:00,
2013-09-06 06:45:00,45.8,43.6,30.18,NNE,22,0.0,0.0,92,0.00,,,0.00,Wunderground v.1.15,2013-09-06 10:45:00,
2013-09-06 06:50:00,45.7,43.5,30.18,NNE,22,0.0,0.0,92,0.00,,,0.00,Wunderground v.1.15,2013-09-06 10:50:00,
2013-09-06 06:55:00,45.7,43.8,30.18,NNE,22,0.0,0.0,93,0.00,,,0.00,Wunderground v.1.15,2013-09-06 10:55:00,
2013-09-06 07:04:00,46.0,44.1,30.19,NNE,22,0.0,0.0,93,0.00,,,0.00,Wunderground v.1.15,2013-09-06 11:04:00,
2013-09-06 07:10:00,46.1,44.2,30.19,NNE,22,0.0,0.0,93,0.00,,,0.00,Wunderground v.1.15,2013-09-06 11:10:00,
2013-09-06 07:15:00,46.2,44.3,30.19,NNE,22,0.0,0.0,93,0.00,,,0.00,Wunderground v.1.15,2013-09-06 11:15:00,
2013-09-06 07:20:00,46.5,44.6,30.19,NNE,22,0.0,0.0,93,0.00,,,0.00,Wunderground v.1.15,2013-09-06 11:20:00,
2013-09-06 07:25:00,46.8,44.6,30.19,NNE,22,0.0,0.0,92,0.00,,,0.00,Wunderground v.1.15,2013-09-06 11:25:00,
2013-09-06 07:30:00,47.3,45.1,30.19,NNE,22,0.0,0.0,92,0.00,,,0.00,Wunderground v.1.15,2013-09-06 11:30:00,
2013-09-06 07:35:00,47.6,44.8,30.20,NNE,22,0.0,0.0,90,0.00,,,0.00,Wunderground v.1.15,2013-09-06 11:35:00,
2013-09-06 07:45:00,48.8,44.2,30.20,NE,46,0.0,0.0,84,0.00,,,0.00,Wunderground v.1.15,2013-09-06 11:45:00,
2013-09-06 07:50:00,49.5,44.2,30.20,NE,46,0.0,0.0,82,0.00,,,0.00,Wunderground v.1.15,2013-09-06 11:50:00,
2013-09-06 07:55:00,49.9,44.3,30.20,NE,46,0.0,0.0,81,0.00,,,0.00,Wunderground v.1.15,2013-09-06 11:55:00,
2013-09-06 08:00:00,50.8,44.2,30.20,NE,46,0.0,0.0,78,0.00,,,0.00,Wunderground v.1.15,2013-09-06 12:00:00,
2013-09-06 08:05:00,51.9,43.9,30.20,West,262,0.0,0.0,74,0.00,,,0.00,Wunderground v.1.15,2013-09-06 12:05:00,
2013-09-06 08:15:00,53.6,43.7,30.20,North,11,0.0,0.0,69,0.00,,,0.00,Wunderground v.1.15,2013-09-06 12:15:00,
2013-09-06 08:25:00,55.0,44.2,30.20,NE,47,0.0,1.0,67,0.00,,,0.00,Wunderground v.1.15,2013-09-06 12:25:00,
2013-09-06 08:35:00,56.2,43.8,30.20,NE,47,0.0,2.0,63,0.00,,,0.00,Wunderground v.1.15,2013-09-06 12:35:00,
2013-09-06 08:40:00,56.5,43.6,30.20,NE,47,0.0,0.0,62,0.00,,,0.00,Wunderground v.1.15,2013-09-06 12:40:00,
2013-09-06 08:49:00,57.2,43.0,30.21,NE,35,0.0,0.0,59,0.00,,,0.00,Wunderground v.1.15,2013-09-06 12:49:00,
2013-09-06 08:54:00,57.3,42.6,30.21,NNE,26,0.0,0.0,58,0.00,,,0.00,Wunderground v.1.15,2013-09-06 12:54:00,
2013-09-06 08:59:00,57.5,42.8,30.21,North,5,0.0,0.0,58,0.00,,,0.00,Wunderground v.1.15,2013-09-06 12:59:00,
2013-09-06 09:05:00,57.6,42.9,30.21,NE,49,0.0,0.0,58,0.00,,,0.00,Wunderground v.1.15,2013-09-06 13:05:00,
2013-09-06 09:15:00,58.4,42.8,30.21,NNE,32,0.0,0.0,56,0.00,,,0.00,Wunderground v.1.15,2013-09-06 13:15:00,
2013-09-06 09:20:00,58.6,42.9,30.21,NE,56,0.0,0.0,56,0.00,,,0.00,Wunderground v.1.15,2013-09-06 13:20:00,
2013-09-06 09:25:00,58.9,43.7,30.21,NE,44,0.0,0.0,57,0.00,,,0.00,Wunderground v.1.15,2013-09-06 13:25:00,
2013-09-06 09:30:00,59.3,43.6,30.21,ESE,109,0.0,0.0,56,0.00,,,0.00,Wunderground v.1.15,2013-09-06 13:30:00,
2013-09-06 09:35:00,59.8,44.1,30.21,East,97,0.0,0.0,56,0.00,,,0.00,Wunderground v.1.15,2013-09-06 13:35:00,
2013-09-06 09:40:00,59.8,42.6,30.21,NE,51,0.0,0.0,53,0.00,,,0.00,Wunderground v.1.15,2013-09-06 13:40:00,
2013-09-06 09:50:00,59.9,43.2,30.21,NE,49,0.0,0.0,54,0.00,,,0.00,Wunderground v.1.15,2013-09-06 13:50:00,
2013-09-06 09:55:00,60.1,43.4,30.21,NE,34,0.0,0.0,54,0.00,,,0.00,Wunderground v.1.15,2013-09-06 13:55:00,
2013-09-06 10:04:00,60.1,41.9,30.21,NE,37,1.0,1.0,51,0.00,,,0.00,Wunderground v.1.15,2013-09-06 14:04:00,
2013-09-06 10:10:00,60.1,42.4,30.21,NNE,27,1.0,3.0,52,0.00,,,0.00,Wunderground v.1.15,2013-09-06 14:10:00,
2013-09-06 10:15:00,60.9,42.6,30.21,NE,45,0.0,3.0,51,0.00,,,0.00,Wunderground v.1.15,2013-09-06 14:15:00,
2013-09-06 10:20:00,61.2,42.9,30.21,NE,46,1.0,1.0,51,0.00,,,0.00,Wunderground v.1.15,2013-09-06 14:20:00,
2013-09-06 10:25:00,61.6,42.2,30.21,NNE,32,0.0,4.0,49,0.00,,,0.00,Wunderground v.1.15,2013-09-06 14:25:00,
2013-09-06 10:35:00,61.8,40.2,30.20,ENE,77,1.0,2.0,45,0.00,,,0.00,Wunderground v.1.15,2013-09-06 14:35:00,
2013-09-06 10:40:00,61.8,40.8,30.20,NNE,32,1.0,1.0,46,0.00,,,0.00,Wunderground v.1.15,2013-09-06 14:40:00,
2013-09-06 10:50:00,62.7,42.2,30.20,NE,49,0.0,0.0,47,0.00,,,0.00,Wunderground v.1.15,2013-09-06 14:50:00,
2013-09-06 10:55:00,63.2,40.9,30.20,East,85,0.0,0.0,44,0.00,,,0.00,Wunderground v.1.15,2013-09-06 14:55:00,
2013-09-06 11:00:00,62.9,40.6,30.20,NE,42,1.0,1.0,44,0.00,,,0.00,Wunderground v.1.15,2013-09-06 15:00:00,
2013-09-06 11:10:00,63.7,40.2,30.20,NE,40,1.0,1.0,42,0.00,,,0.00,Wunderground v.1.15,2013-09-06 15:10:00,
2013-09-06 11:15:00,64.3,41.9,30.20,WNW,284,1.0,1.0,44,0.00,,,0.00,Wunderground v.1.15,2013-09-06 15:15:00,
2013-09-06 11:24:00,64.8,39.2,30.19,NW,325,1.0,2.0,39,0.00,,,0.00,Wunderground v.1.15,2013-09-06 15:24:00,
2013-09-06 11:30:00,65.2,42.7,30.19,North,350,1.0,1.0,44,0.00,,,0.00,Wunderground v.1.15,2013-09-06 15:30:00,
2013-09-06 11:35:00,64.8,41.8,30.19,ESE,121,1.0,1.0,43,0.00,,,0.00,Wunderground v.1.15,2013-09-06 15:35:00,
2013-09-06 11:40:00,65.5,43.6,30.19,NNE,30,0.0,3.0,45,0.00,,,0.00,Wunderground v.1.15,2013-09-06 15:40:00,
2013-09-06 11:50:00,65.2,40.3,30.19,NE,44,1.0,1.0,40,0.00,,,0.00,Wunderground v.1.15,2013-09-06 15:50:00,
2013-09-06 11:55:00,65.8,42.7,30.19,NW,326,1.0,1.0,43,0.00,,,0.00,Wunderground v.1.15,2013-09-06 15:55:00,
2013-09-06 12:00:00,66.8,41.7,30.19,NW,326,0.0,0.0,40,0.00,,,0.00,Wunderground v.1.15,2013-09-06 16:00:00,
2013-09-06 12:05:00,67.3,41.5,30.19,NW,326,0.0,1.0,39,0.00,,,0.00,Wunderground v.1.15,2013-09-06 16:05:00,
2013-09-06 12:15:00,67.8,39.9,30.19,NNW,348,0.0,3.0,36,0.00,,,0.00,Wunderground v.1.15,2013-09-06 16:15:00,
2013-09-06 12:25:00,66.6,40.9,30.19,WNW,302,1.0,1.0,39,0.00,,,0.00,Wunderground v.1.15,2013-09-06 16:25:00,
2013-09-06 12:30:00,66.9,39.8,30.19,West,267,0.0,2.0,37,0.00,,,0.00,Wunderground v.1.15,2013-09-06 16:30:00,
2013-09-06 12:35:00,66.9,43.0,30.18,NNW,327,0.0,2.0,42,0.00,,,0.00,Wunderground v.1.15,2013-09-06 16:35:00,
2013-09-06 12:45:00,67.8,41.9,30.18,NE,53,1.0,4.0,39,0.00,,,0.00,Wunderground v.1.15,2013-09-06 16:45:00,
2013-09-06 12:55:00,66.6,40.2,30.18,SE,131,1.0,1.0,38,0.00,,,0.00,Wunderground v.1.15,2013-09-06 16:55:00,
2013-09-06 13:04:00,67.6,43.1,30.17,SSE,158,0.0,0.0,41,0.00,,,0.00,Wunderground v.1.15,2013-09-06 17:04:00,
2013-09-06 13:09:00,67.9,43.3,30.17,WSW,257,0.0,0.0,41,0.00,,,0.00,Wunderground v.1.15,2013-09-06 17:09:00,
2013-09-06 13:14:00,68.4,43.1,30.17,NW,317,0.0,1.0,40,0.00,,,0.00,Wunderground v.1.15,2013-09-06 17:14:00,
2013-09-06 13:20:00,69.1,43.1,30.17,NE,56,0.0,0.0,39,0.00,,,0.00,Wunderground v.1.15,2013-09-06 17:20:00,
2013-09-06 13:30:00,67.3,42.1,30.17,NNW,341,1.0,2.0,40,0.00,,,0.00,Wunderground v.1.15,2013-09-06 17:30:00,
2013-09-06 13:39:00,66.9,43.7,30.17,NE,38,1.0,1.0,43,0.00,,,0.00,Wunderground v.1.15,2013-09-06 17:39:00,
2013-09-06 13:44:00,66.9,41.8,30.17,SE,126,1.0,1.0,40,0.00,,,0.00,Wunderground v.1.15,2013-09-06 17:44:00,
2013-09-06 13:50:00,67.4,43.5,30.16,East,84,1.0,1.0,42,0.00,,,0.00,Wunderground v.1.15,2013-09-06 17:50:00,
2013-09-06 14:00:00,67.8,42.6,30.16,NE,50,1.0,3.0,40,0.00,,,0.00,Wunderground v.1.15,2013-09-06 18:00:00,
2013-09-06 14:05:00,67.9,42.7,30.16,NNE,30,1.0,3.0,40,0.00,,,0.00,Wunderground v.1.15,2013-09-06 18:05:00,
2013-09-06 14:10:00,68.3,43.0,30.16,NE,38,1.0,5.0,40,0.00,,,0.00,Wunderground v.1.15,2013-09-06 18:10:00,
2013-09-06 14:20:00,68.4,44.4,30.15,ENE,78,1.0,1.0,42,0.00,,,0.00,Wunderground v.1.15,2013-09-06 18:20:00,
2013-09-06 14:25:00,69.4,45.3,30.15,SE,135,0.0,1.0,42,0.00,,,0.00,Wunderground v.1.15,2013-09-06 18:25:00,
2013-09-06 14:30:00,70.1,43.3,30.15,ENE,61,0.0,1.0,38,0.00,,,0.00,Wunderground v.1.15,2013-09-06 18:30:00,
2013-09-06 14:35:00,70.1,45.3,30.15,NE,37,1.0,1.0,41,0.00,,,0.00,Wunderground v.1.15,2013-09-06 18:35:00,
2013-09-06 14:40:00,70.3,44.2,30.15,NE,36,1.0,1.0,39,0.00,,,0.00,Wunderground v.1.15,2013-09-06 18:40:00,
2013-09-06 14:45:00,71.1,44.9,30.15,NNE,31,0.0,1.0,39,0.00,,,0.00,Wunderground v.1.15,2013-09-06 18:45:00,
2013-09-06 14:55:00,70.6,44.4,30.14,North,5,0.0,1.0,39,0.00,,,0.00,Wunderground v.1.15,2013-09-06 18:55:00,
2013-09-06 15:00:00,69.9,43.8,30.14,North,355,0.0,0.0,39,0.00,,,0.00,Wunderground v.1.15,2013-09-06 19:00:00,
2013-09-06 15:05:00,69.9,44.5,30.13,North,355,0.0,0.0,40,0.00,,,0.00,Wunderground v.1.15,2013-09-06 19:05:00,
2013-09-06 15:10:00,70.1,44.0,30.13,North,5,0.0,0.0,39,0.00,,,0.00,Wunderground v.1.15,2013-09-06 19:10:00,
2013-09-06 15:15:00,69.8,44.4,30.13,NNW,347,1.0,1.0,40,0.00,,,0.00,Wunderground v.1.15,2013-09-06 19:15:00,
2013-09-06 15:20:00,69.6,44.8,30.12,North,355,1.0,1.0,41,0.00,,,0.00,Wunderground v.1.15,2013-09-06 19:20:00,
2013-09-06 15:25:00,70.1,45.3,30.12,NNW,337,0.0,2.0,41,0.00,,,0.00,Wunderground v.1.15,2013-09-06 19:25:00,
2013-09-06 15:30:00,70.1,45.9,30.12,North,360,0.0,1.0,42,0.00,,,0.00,Wunderground v.1.15,2013-09-06 19:30:00,
2013-09-06 15:40:00,70.1,45.3,30.12,NE,45,1.0,1.0,41,0.00,,,0.00,Wunderground v.1.15,2013-09-06 19:40:00,
2013-09-06 15:45:00,70.3,44.8,30.12,NE,45,0.0,1.0,40,0.00,,,0.00,Wunderground v.1.15,2013-09-06 19:45:00,
2013-09-06 15:55:00,70.9,44.7,30.11,SSE,149,0.0,0.0,39,0.00,,,0.00,Wunderground v.1.15,2013-09-06 19:55:00,
2013-09-06 16:00:00,70.9,45.4,30.11,ESE,110,0.0,0.0,40,0.00,,,0.00,Wunderground v.1.15,2013-09-06 20:00:00,
2013-09-06 16:05:00,71.3,45.7,30.11,SW,219,0.0,0.0,40,0.00,,,0.00,Wunderground v.1.15,2013-09-06 20:05:00,
2013-09-06 16:10:00,71.1,45.5,30.11,NE,34,0.0,0.0,40,0.00,,,0.00,Wunderground v.1.15,2013-09-06 20:10:00,
2013-09-06 16:15:00,70.6,44.4,30.11,North,349,1.0,3.0,39,0.00,,,0.00,Wunderground v.1.15,2013-09-06 20:15:00,
2013-09-06 16:20:00,69.8,45.0,30.10,WNW,298,1.0,1.0,41,0.00,,,0.00,Wunderground v.1.15,2013-09-06 20:20:00,
2013-09-06 16:25:00,69.9,44.5,30.10,NNW,347,1.0,1.0,40,0.00,,,0.00,Wunderground v.1.15,2013-09-06 20:25:00,
2013-09-06 16:30:00,70.1,44.6,30.10,North,355,0.0,0.0,40,0.00,,,0.00,Wunderground v.1.15,2013-09-06 20:30:00,
2013-09-06 16:35:00,70.1,44.6,30.10,North,9,0.0,0.0,40,0.00,,,0.00,Wunderground v.1.15,2013-09-06 20:35:00,
2013-09-06 16:40:00,70.1,45.9,30.10,North,9,0.0,0.0,42,0.00,,,0.00,Wunderground v.1.15,2013-09-06 20:40:00,
2013-09-06 16:45:00,69.8,45.7,30.10,NE,39,0.0,0.0,42,0.00,,,0.00,Wunderground v.1.15,2013-09-06 20:45:00,
2013-09-06 16:50:00,69.4,44.7,30.10,NNE,28,0.0,0.0,41,0.00,,,0.00,Wunderground v.1.15,2013-09-06 20:50:00,
2013-09-06 17:00:00,68.9,45.5,30.10,North,5,0.0,0.0,43,0.00,,,0.00,Wunderground v.1.15,2013-09-06 21:00:00,
2013-09-06 17:05:00,68.8,44.8,30.10,North,5,0.0,1.0,42,0.00,,,0.00,Wunderground v.1.15,2013-09-06 21:05:00,
2013-09-06 17:10:00,68.6,43.3,30.10,North,5,0.0,0.0,40,0.00,,,0.00,Wunderground v.1.15,2013-09-06 21:10:00,
2013-09-06 17:19:00,68.4,43.8,30.09,North,11,0.0,2.0,41,0.00,,,0.00,Wunderground v.1.15,2013-09-06 21:19:00,
2013-09-06 17:24:00,68.1,44.7,30.09,WNW,290,0.0,2.0,43,0.00,,,0.00,Wunderground v.1.15,2013-09-06 21:24:00,
2013-09-06 17:29:00,67.8,43.2,30.09,North,5,0.0,0.0,41,0.00,,,0.00,Wunderground v.1.15,2013-09-06 21:29:00,
2013-09-06 17:34:00,67.4,44.1,30.09,North,360,0.0,0.0,43,0.00,,,0.00,Wunderground v.1.15,2013-09-06 21:34:00,
2013-09-06 17:39:00,67.1,42.6,30.09,NNE,13,0.0,1.0,41,0.00,,,0.00,Wunderground v.1.15,2013-09-06 21:39:00,
2013-09-06 17:44:00,66.9,43.7,30.09,NNW,333,0.0,1.0,43,0.00,,,0.00,Wunderground v.1.15,2013-09-06 21:44:00,
2013-09-06 17:50:00,66.8,43.6,30.10,NNW,338,0.0,1.0,43,0.00,,,0.00,Wunderground v.1.15,2013-09-06 21:50:00,
2013-09-06 18:00:00,66.4,44.4,30.10,NNW,344,0.0,0.0,45,0.00,,,0.00,Wunderground v.1.15,2013-09-06 22:00:00,
2013-09-06 18:05:00,66.4,45.0,30.10,NNE,14,0.0,0.0,46,0.00,,,0.00,Wunderground v.1.15,2013-09-06 22:05:00,
2013-09-06 18:10:00,66.3,44.3,30.10,NNE,14,0.0,0.0,45,0.00,,,0.00,Wunderground v.1.15,2013-09-06 22:10:00,
2013-09-06 18:15:00,66.3,45.5,30.10,NNE,14,0.0,0.0,47,0.00,,,0.00,Wunderground v.1.15,2013-09-06 22:15:00,
2013-09-06 18:25:00,66.0,45.7,30.10,NNE,14,0.0,0.0,48,0.00,,,0.00,Wunderground v.1.15,2013-09-06 22:25:00,
2013-09-06 18:30:00,65.8,46.1,30.10,NNE,13,0.0,0.0,49,0.00,,,0.00,Wunderground v.1.15,2013-09-06 22:30:00,
2013-09-06 18:35:00,65.6,46.5,30.09,NNE,13,0.0,0.0,50,0.00,,,0.00,Wunderground v.1.15,2013-09-06 22:35:00,
2013-09-06 18:40:00,65.3,46.2,30.09,NNE,14,0.0,0.0,50,0.00,,,0.00,Wunderground v.1.15,2013-09-06 22:40:00,
2013-09-06 18:45:00,65.0,46.4,30.09,NNE,14,0.0,0.0,51,0.00,,,0.00,Wunderground v.1.15,2013-09-06 22:45:00,
2013-09-06 18:50:00,64.7,46.7,30.09,NNE,13,0.0,0.0,52,0.00,,,0.00,Wunderground v.1.15,2013-09-06 22:50:00,
2013-09-06 18:55:00,64.3,46.3,30.09,NNE,14,0.0,0.0,52,0.00,,,0.00,Wunderground v.1.15,2013-09-06 22:55:00,
2013-09-06 19:00:00,64.0,47.0,30.09,NNE,13,0.0,0.0,54,0.00,,,0.00,Wunderground v.1.15,2013-09-06 23:00:00,
2013-09-06 19:05:00,63.5,47.0,30.09,NNE,14,0.0,0.0,55,0.00,,,0.00,Wunderground v.1.15,2013-09-06 23:05:00,
2013-09-06 19:10:00,63.2,47.7,30.09,NNE,14,0.0,0.0,57,0.00,,,0.00,Wunderground v.1.15,2013-09-06 23:10:00,
2013-09-06 19:20:00,62.3,48.2,30.09,NNE,13,0.0,0.0,60,0.00,,,0.00,Wunderground v.1.15,2013-09-06 23:20:00,
2013-09-06 19:29:00,61.3,47.7,30.09,NNE,14,0.0,0.0,61,0.00,,,0.00,Wunderground v.1.15,2013-09-06 23:29:00,
2013-09-06 19:35:00,60.9,47.8,30.09,NNE,13,0.0,0.0,62,0.00,,,0.00,Wunderground v.1.15,2013-09-06 23:35:00,
2013-09-06 19:39:00,60.5,48.3,30.09,NNE,13,0.0,0.0,64,0.00,,,0.00,Wunderground v.1.15,2013-09-06 23:39:00,
2013-09-06 19:45:00,60.1,48.3,30.09,NNE,13,0.0,0.0,65,0.00,,,0.00,Wunderground v.1.15,2013-09-06 23:45:00,
2013-09-06 19:49:00,59.6,47.8,30.09,NNE,14,0.0,0.0,65,0.00,,,0.00,Wunderground v.1.15,2013-09-06 23:49:00,
2013-09-06 19:54:00,59.2,47.8,30.09,NNE,13,0.0,0.0,66,0.00,,,0.00,Wunderground v.1.15,2013-09-06 23:54:00,
2013-09-06 19:59:00,58.9,47.6,30.09,NNE,13,0.0,0.0,66,0.00,,,0.00,Wunderground v.1.15,2013-09-06 23:59:00,
2013-09-06 20:05:00,58.6,47.7,30.10,NNE,13,0.0,0.0,67,0.00,,,0.00,Wunderground v.1.15,2013-09-07 00:05:00,
2013-09-06 20:15:00,58.0,46.7,30.10,NNE,14,0.0,0.0,66,0.00,,,0.00,Wunderground v.1.15,2013-09-07 00:15:00,
2013-09-06 20:24:00,57.5,46.6,30.10,NNE,14,0.0,0.0,67,0.00,,,0.00,Wunderground v.1.15,2013-09-07 00:24:00,
2013-09-06 20:29:00,57.3,46.8,30.10,NNE,13,0.0,0.0,68,0.00,,,0.00,Wunderground v.1.15,2013-09-07 00:29:00,
2013-09-06 20:35:00,57.2,46.7,30.10,NNE,14,0.0,0.0,68,0.00,,,0.00,Wunderground v.1.15,2013-09-07 00:35:00,
2013-09-06 20:40:00,57.0,47.3,30.10,NNE,14,0.0,0.0,70,0.00,,,0.00,Wunderground v.1.15,2013-09-07 00:40:00,
2013-09-06 20:45:00,56.9,48.0,30.10,NNE,13,0.0,0.0,72,0.00,,,0.00,Wunderground v.1.15,2013-09-07 00:45:00,
2013-09-06 20:50:00,56.6,47.7,30.10,NNE,13,0.0,0.0,72,0.00,,,0.00,Wunderground v.1.15,2013-09-07 00:50:00,
2013-09-06 20:55:00,56.3,47.4,30.10,NNE,14,0.0,0.0,72,0.00,,,0.00,Wunderground v.1.15,2013-09-07 00:55:00,
2013-09-06 21:00:00,56.2,47.7,30.10,NNE,13,0.0,0.0,73,0.00,,,0.00,Wunderground v.1.15,2013-09-07 01:00:00,
2013-09-06 21:10:00,55.9,47.7,30.10,NNE,14,0.0,0.0,74,0.00,,,0.00,Wunderground v.1.15,2013-09-07 01:10:00,
2013-09-06 21:20:00,55.6,47.1,30.10,NNE,14,0.0,0.0,73,0.00,,,0.00,Wunderground v.1.15,2013-09-07 01:20:00,
2013-09-06 21:30:00,55.3,47.2,30.10,NNE,14,0.0,0.0,74,0.00,,,0.00,Wunderground v.1.15,2013-09-07 01:30:00,
2013-09-06 21:40:00,55.0,47.2,30.09,NNE,14,0.0,0.0,75,0.00,,,0.00,Wunderground v.1.15,2013-09-07 01:40:00,
2013-09-06 21:50:00,54.5,47.4,30.09,NNE,14,0.0,0.0,77,0.00,,,0.00,Wunderground v.1.15,2013-09-07 01:50:00,
2013-09-06 21:55:00,54.2,47.5,30.09,NNE,14,0.0,0.0,78,0.00,,,0.00,Wunderground v.1.15,2013-09-07 01:55:00,
2013-09-06 22:04:00,53.8,47.1,30.09,NNE,14,0.0,0.0,78,0.00,,,0.00,Wunderground v.1.15,2013-09-07 02:04:00,
2013-09-06 22:09:00,53.6,46.9,30.09,NNE,14,0.0,0.0,78,0.00,,,0.00,Wunderground v.1.15,2013-09-07 02:09:00,
2013-09-06 22:14:00,53.5,47.1,30.09,NNE,14,0.0,0.0,79,0.00,,,0.00,Wunderground v.1.15,2013-09-07 02:14:00,
2013-09-06 22:19:00,53.3,47.3,30.09,NNE,14,0.0,0.0,80,0.00,,,0.00,Wunderground v.1.15,2013-09-07 02:19:00,
2013-09-06 22:25:00,53.3,47.3,30.09,NNE,14,0.0,0.0,80,0.00,,,0.00,Wunderground v.1.15,2013-09-07 02:25:00,
2013-09-06 22:30:00,53.2,47.5,30.09,NNE,14,0.0,0.0,81,0.00,,,0.00,Wunderground v.1.15,2013-09-07 02:30:00,
2013-09-06 22:35:00,52.9,46.9,30.09,NNE,14,0.0,0.0,80,0.00,,,0.00,Wunderground v.1.15,2013-09-07 02:35:00,
2013-09-06 22:40:00,52.8,47.1,30.09,NNE,14,0.0,0.0,81,0.00,,,0.00,Wunderground v.1.15,2013-09-07 02:40:00,
2013-09-06 22:50:00,52.6,46.9,30.08,NNE,14,0.0,0.0,81,0.00,,,0.00,Wunderground v.1.15,2013-09-07 02:50:00,
2013-09-06 23:00:00,52.5,46.8,30.08,NNE,13,0.0,0.0,81,0.00,,,0.00,Wunderground v.1.15,2013-09-07 03:00:00,
2013-09-06 23:05:00,52.3,46.6,30.09,NNE,14,0.0,0.0,81,0.00,,,0.00,Wunderground v.1.15,2013-09-07 03:05:00,
2013-09-06 23:10:00,52.2,46.5,30.09,NNE,14,0.0,0.0,81,0.00,,,0.00,Wunderground v.1.15,2013-09-07 03:10:00,
2013-09-06 23:15:00,52.2,46.9,30.09,NNE,14,0.0,0.0,82,0.00,,,0.00,Wunderground v.1.15,2013-09-07 03:15:00,
2013-09-06 23:20:00,52.0,46.7,30.08,NNE,14,0.0,0.0,82,0.00,,,0.00,Wunderground v.1.15,2013-09-07 03:20:00,
2013-09-06 23:30:00,51.9,46.6,30.08,NNE,13,0.0,0.0,82,0.00,,,0.00,Wunderground v.1.15,2013-09-07 03:30:00,
2013-09-06 23:35:00,51.9,46.3,30.07,NNE,14,0.0,0.0,81,0.00,,,0.00,Wunderground v.1.15,2013-09-07 03:35:00,
2013-09-06 23:40:00,51.9,46.3,30.07,NNE,14,0.0,0.0,81,0.00,,,0.00,Wunderground v.1.15,2013-09-07 03:40:00,
2013-09-06 23:45:00,52.0,46.3,30.07,NNE,13,0.0,0.0,81,0.00,,,0.00,Wunderground v.1.15,2013-09-07 03:45:00,
2013-09-06 23:55:00,52.0,46.0,30.07,NNE,14,0.0,0.0,80,0.00,,,0.00,Wunderground v.1.15,2013-09-07 03:55:00,